createdAt,value
2022-12-09T00:01:15.903Z,10.23
2022-12-09T00:05:18.211Z,10.39
2022-12-09T00:09:20.518Z,10.57
2022-12-09T00:13:22.886Z,10.71
2022-12-09T00:17:25.109Z,10.85
2022-12-09T00:21:32.929Z,11.00
2022-12-09T00:25:35.250Z,11.06
2022-12-09T00:29:37.719Z,11.09
2022-12-09T00:33:39.924Z,11.14
2022-12-09T00:37:42.167Z,11.14
2022-12-09T00:41:44.654Z,11.10
2022-12-09T00:45:46.831Z,11.10
2022-12-09T00:49:50.290Z,11.11
2022-12-09T00:53:54.931Z,11.16
2022-12-09T00:57:57.304Z,11.21
2022-12-09T01:01:59.606Z,11.20
2022-12-09T01:06:02.592Z,10.94
2022-12-09T01:10:06.854Z,11.00
2022-12-09T01:14:10.347Z,10.92
2022-12-09T01:18:12.665Z,10.86
2022-12-09T01:22:14.938Z,10.98
2022-12-09T01:26:17.444Z,11.12
2022-12-09T01:30:20.461Z,11.20
2022-12-09T01:34:22.724Z,11.31
2022-12-09T01:38:27.754Z,11.38
2022-12-09T01:42:29.918Z,11.44
2022-12-09T01:46:32.101Z,11.49
2022-12-09T01:50:36.816Z,11.59
2022-12-09T01:54:41.864Z,11.60
2022-12-09T01:58:45.519Z,11.64
2022-12-09T02:02:49.822Z,11.70
2022-12-09T02:06:54.230Z,11.52
2022-12-09T02:11:02.410Z,11.22
2022-12-09T02:15:08.724Z,10.88
2022-12-09T02:19:39.505Z,10.66
2022-12-09T02:23:48.658Z,10.54
2022-12-09T02:28:10.740Z,10.62
2022-12-09T02:32:36.120Z,10.51
2022-12-09T02:36:47.154Z,10.41
2022-12-09T02:40:55.787Z,10.29
2022-12-09T02:45:01.323Z,10.21
2022-12-09T02:49:04.931Z,10.14
2022-12-09T02:53:11.050Z,10.20
2022-12-09T02:57:19.915Z,10.27
2022-12-09T03:01:27.472Z,10.30
2022-12-09T03:05:34.290Z,10.25
2022-12-09T03:09:44.748Z,10.23
2022-12-09T03:14:00.088Z,10.21
2022-12-09T03:18:06.470Z,10.15
2022-12-09T03:22:15.988Z,10.19
2022-12-09T03:26:22.326Z,10.16
2022-12-09T03:30:25.882Z,10.15
2022-12-09T03:34:33.021Z,10.09
2022-12-09T03:38:38.548Z,10.05
2022-12-09T03:42:49.277Z,10.15
2022-12-09T03:46:52.243Z,10.23
2022-12-09T03:50:59.668Z,10.25
2022-12-09T03:55:11.296Z,10.29
2022-12-09T03:59:16.207Z,10.40
2022-12-09T04:03:19.785Z,10.42
2022-12-09T04:07:22.841Z,10.52
2022-12-09T04:11:24.989Z,10.49
2022-12-09T04:15:27.524Z,10.51
2022-12-09T04:19:29.731Z,10.44
2022-12-09T04:23:31.851Z,10.54
2022-12-09T04:27:34.409Z,10.60
2022-12-09T04:31:36.682Z,10.57
2022-12-09T04:35:39.191Z,10.64
2022-12-09T04:39:42.014Z,10.68
2022-12-09T04:43:44.637Z,10.74
2022-12-09T04:47:46.820Z,10.77
2022-12-09T04:51:49.116Z,10.64
2022-12-09T04:56:00.007Z,10.68
2022-12-09T05:00:04.573Z,10.58
2022-12-09T05:04:07.938Z,10.47
2022-12-09T05:08:10.583Z,10.31
2022-12-09T05:12:13.197Z,10.27
2022-12-09T05:16:17.623Z,10.27
2022-12-09T05:20:20.444Z,10.31
2022-12-09T05:24:22.533Z,10.35
2022-12-09T05:28:24.747Z,10.39
2022-12-09T05:32:29.790Z,10.39
2022-12-09T05:36:32.347Z,10.43
2022-12-09T05:40:34.790Z,10.51
2022-12-09T05:44:36.943Z,10.62
2022-12-09T05:48:39.188Z,10.85
2022-12-09T05:52:41.492Z,10.96
2022-12-09T05:56:48.057Z,11.11
2022-12-09T06:00:51.432Z,11.59
2022-12-09T06:04:56.150Z,12.06
2022-12-09T06:09:00.853Z,12.46
2022-12-09T06:13:03.805Z,12.60
2022-12-09T06:17:06.139Z,12.80
2022-12-09T06:21:10.194Z,12.94
2022-12-09T06:25:12.874Z,12.94
2022-12-09T06:29:15.316Z,13.01
2022-12-09T06:33:37.320Z,13.07
2022-12-09T06:37:39.724Z,13.14
2022-12-09T06:41:43.091Z,13.21
2022-12-09T06:45:45.703Z,13.23
2022-12-09T06:49:49.448Z,13.25
2022-12-09T06:53:52.073Z,13.26
2022-12-09T06:57:55.222Z,13.30
2022-12-09T07:01:57.929Z,13.36
2022-12-09T07:06:01.756Z,13.41
2022-12-09T07:10:08.775Z,13.48
2022-12-09T07:14:11.556Z,13.59
2022-12-09T07:18:14.432Z,13.59
2022-12-09T07:22:16.684Z,13.62
2022-12-09T07:26:19.953Z,13.68
2022-12-09T07:30:22.168Z,13.71
2022-12-09T07:34:25.880Z,13.74
2022-12-09T07:38:28.543Z,13.81
2022-12-09T07:42:30.837Z,13.85
2022-12-09T07:46:39.706Z,13.90
2022-12-09T07:50:42.156Z,13.95
2022-12-09T07:54:44.980Z,14.01
2022-12-09T07:58:48.727Z,14.06
2022-12-09T08:02:52.348Z,14.11
2022-12-09T08:06:54.933Z,14.14
2022-12-09T08:10:57.393Z,14.15
2022-12-09T08:15:00.261Z,14.15
2022-12-09T08:19:02.881Z,14.23
2022-12-09T08:23:05.089Z,14.25
2022-12-09T08:27:07.580Z,14.32
2022-12-09T08:31:12.494Z,14.36
2022-12-09T08:35:15.479Z,14.40
2022-12-09T08:39:18.297Z,14.46
2022-12-09T08:43:20.839Z,14.53
2022-12-09T08:47:23.195Z,14.57
2022-12-09T08:51:25.535Z,14.58
2022-12-09T08:55:28.585Z,14.62
2022-12-09T08:59:30.962Z,14.69
2022-12-09T09:03:33.596Z,14.69
2022-12-09T09:07:36.577Z,14.65
2022-12-09T09:11:40.468Z,14.68
2022-12-09T09:15:43.010Z,14.76
2022-12-09T09:19:45.663Z,14.77
2022-12-09T09:23:48.738Z,14.81
2022-12-09T09:27:51.089Z,14.80
2022-12-09T09:31:54.794Z,14.84
2022-12-09T09:36:05.543Z,14.89
2022-12-09T09:40:11.564Z,14.95
2022-12-09T09:44:37.415Z,14.93
2022-12-09T09:48:39.899Z,15.02
2022-12-09T09:52:42.901Z,15.03
2022-12-09T09:57:00.108Z,15.05
2022-12-09T10:01:13.502Z,15.04
2022-12-09T10:05:35.631Z,15.08
2022-12-09T10:10:00.001Z,15.03
2022-12-09T10:14:40.058Z,14.99
2022-12-09T10:19:13.404Z,15.01
2022-12-09T10:23:17.189Z,15.02
2022-12-09T10:27:41.396Z,14.99
2022-12-09T10:31:44.430Z,15.06
2022-12-09T10:35:47.730Z,15.08
2022-12-09T10:39:54.223Z,15.15
2022-12-09T10:44:23.347Z,15.16
2022-12-09T10:48:38.051Z,15.19
2022-12-09T10:52:45.489Z,15.20
2022-12-09T10:57:16.404Z,15.21
2022-12-09T11:01:19.354Z,15.21
2022-12-09T11:05:31.907Z,15.23
2022-12-09T11:09:36.674Z,15.23
2022-12-09T11:13:42.666Z,15.15
2022-12-09T11:17:57.844Z,15.02
2022-12-09T11:22:23.005Z,14.88
2022-12-09T11:26:33.068Z,14.92
2022-12-09T11:31:19.811Z,14.96
2022-12-09T11:35:18.920Z,15.03
2022-12-09T11:39:33.001Z,15.00
2022-12-09T11:43:57.138Z,14.91
2022-12-09T11:48:32.538Z,14.90
2022-12-09T11:52:38.152Z,14.98
2022-12-09T11:56:41.845Z,14.96
2022-12-09T12:00:51.355Z,14.95
2022-12-09T12:05:24.073Z,14.98
2022-12-09T12:09:36.062Z,15.00
2022-12-09T12:13:50.820Z,15.03
2022-12-09T12:17:56.689Z,14.99
2022-12-09T12:22:03.990Z,15.00
2022-12-09T12:26:15.645Z,15.04
2022-12-09T12:30:21.244Z,15.06
2022-12-09T12:34:39.097Z,15.01
2022-12-09T12:38:47.917Z,15.10
2022-12-09T12:43:13.188Z,15.06
2022-12-09T12:47:25.686Z,15.19
2022-12-09T12:51:54.443Z,15.21
2022-12-09T12:56:03.479Z,15.31
2022-12-09T13:00:22.591Z,15.33
2022-12-09T13:04:53.582Z,15.34
2022-12-09T13:09:10.927Z,15.34
2022-12-09T13:13:58.539Z,15.40
2022-12-09T13:18:07.795Z,15.44
2022-12-09T13:22:18.671Z,15.48
2022-12-09T13:26:30.043Z,15.59
2022-12-09T13:30:49.654Z,15.69
2022-12-09T13:35:05.829Z,15.71
2022-12-09T13:39:13.823Z,15.60
2022-12-09T13:43:24.617Z,15.49
2022-12-09T13:47:33.800Z,15.45
2022-12-09T13:51:54.175Z,15.33
2022-12-09T13:55:59.345Z,15.19
2022-12-09T14:00:07.682Z,15.23
2022-12-09T14:04:19.474Z,15.19
2022-12-09T14:08:31.172Z,15.17
2022-12-09T14:12:33.296Z,15.07
2022-12-09T14:16:35.663Z,15.05
2022-12-09T14:20:40.073Z,15.05
2022-12-09T14:24:42.385Z,14.98
2022-12-09T14:28:53.294Z,14.88
2022-12-09T14:32:57.157Z,14.86
2022-12-09T14:37:14.143Z,14.82
2022-12-09T14:41:32.700Z,14.79
2022-12-09T14:46:02.546Z,14.77
2022-12-09T14:50:14.628Z,14.75
2022-12-09T14:54:29.614Z,14.74
2022-12-09T14:58:32.700Z,14.70
2022-12-09T15:02:35.646Z,14.67
2022-12-09T15:06:37.877Z,14.67
2022-12-09T15:10:40.160Z,14.68
2022-12-09T15:14:44.444Z,14.70
2022-12-09T15:18:47.483Z,14.67
2022-12-09T15:22:55.737Z,14.73
2022-12-09T15:27:00.861Z,14.69
2022-12-09T15:31:15.688Z,14.73
2022-12-09T15:35:25.696Z,14.68
2022-12-09T15:39:27.853Z,14.68
2022-12-09T15:43:31.397Z,14.70
2022-12-09T15:47:44.909Z,14.75
2022-12-09T15:51:49.323Z,14.80
2022-12-09T15:55:51.302Z,14.73
2022-12-09T15:59:57.435Z,14.68
2022-12-09T16:04:01.893Z,14.70
2022-12-09T16:08:04.181Z,14.69
2022-12-09T16:12:25.625Z,14.74
2022-12-09T16:17:03.568Z,14.68
2022-12-09T16:21:41.945Z,14.76
2022-12-09T16:25:48.264Z,14.77
2022-12-09T16:29:53.556Z,14.77
2022-12-09T16:33:58.836Z,14.79
2022-12-09T16:38:10.028Z,14.84
2022-12-09T16:42:37.866Z,14.83
2022-12-09T16:46:44.131Z,14.89
2022-12-09T16:50:56.651Z,14.85
2022-12-09T16:54:58.994Z,14.86
2022-12-09T16:59:01.163Z,14.91
2022-12-09T17:03:08.704Z,14.94
2022-12-09T17:07:10.966Z,14.92
2022-12-09T17:11:13.795Z,14.90
2022-12-09T17:15:18.306Z,14.93
2022-12-09T17:19:20.716Z,14.97
2022-12-09T17:23:22.935Z,14.94
2022-12-09T17:27:25.301Z,14.92
2022-12-09T17:31:27.538Z,14.90
2022-12-09T17:35:30.039Z,14.89
2022-12-09T17:39:32.457Z,14.85
2022-12-09T17:43:35.501Z,14.86
2022-12-09T17:47:37.756Z,14.85
2022-12-09T17:51:40.200Z,14.85
2022-12-09T17:55:42.463Z,14.81
2022-12-09T17:59:44.655Z,14.76
2022-12-09T18:03:56.182Z,14.72
2022-12-09T18:07:59.004Z,14.68
2022-12-09T18:12:01.486Z,14.70
2022-12-09T18:16:12.315Z,14.74
2022-12-09T18:20:14.761Z,14.77
2022-12-09T18:24:16.992Z,14.80
2022-12-09T18:28:19.389Z,14.82
2022-12-09T18:32:21.635Z,14.82
2022-12-09T18:36:26.092Z,14.85
2022-12-09T18:41:24.419Z,14.87
2022-12-09T18:45:27.649Z,14.86
2022-12-09T18:49:30.246Z,14.86
2022-12-09T18:53:32.792Z,14.81
2022-12-09T18:57:34.959Z,14.81
2022-12-09T19:01:42.713Z,14.82
2022-12-09T19:05:45.238Z,14.82
2022-12-09T19:09:47.424Z,14.81
2022-12-09T19:13:50.232Z,14.75
2022-12-09T19:17:52.462Z,14.73
2022-12-09T19:21:55.409Z,14.67
2022-12-09T19:25:57.796Z,14.62
2022-12-09T19:30:00.071Z,14.61
2022-12-09T19:34:34.652Z,14.61
2022-12-09T19:38:37.169Z,14.62
2022-12-09T19:42:40.033Z,14.65
2022-12-09T19:48:16.576Z,14.66
2022-12-09T19:56:45.936Z,14.71
2022-12-09T20:00:48.061Z,14.77
2022-12-09T20:05:51.483Z,14.81
2022-12-09T20:10:17.149Z,14.83
2022-12-09T20:15:22.585Z,14.81
2022-12-09T20:19:24.905Z,14.90
2022-12-09T20:23:27.134Z,14.95
2022-12-09T20:27:29.555Z,14.98
2022-12-09T20:31:33.382Z,14.98
2022-12-09T20:35:37.233Z,14.96
2022-12-09T20:39:39.874Z,14.96
2022-12-09T20:43:44.048Z,14.97
2022-12-09T20:47:46.341Z,14.95
2022-12-09T20:51:49.252Z,14.96
2022-12-09T20:55:59.395Z,14.97
2022-12-09T21:00:01.836Z,14.99
2022-12-09T21:04:06.631Z,15.04
2022-12-09T21:08:09.287Z,15.04
2022-12-09T21:12:13.868Z,15.05
2022-12-09T21:16:28.558Z,15.01
2022-12-09T21:20:30.805Z,14.96
2022-12-09T21:24:33.256Z,14.85
2022-12-09T21:28:36.979Z,14.86
2022-12-09T21:32:39.633Z,14.91
2022-12-09T21:36:44.535Z,14.95
2022-12-09T21:40:46.951Z,14.32
2022-12-09T21:44:49.086Z,13.62
2022-12-09T21:48:52.807Z,13.20
2022-12-09T21:52:56.418Z,12.90
2022-12-09T21:56:59.093Z,12.70
2022-12-09T22:01:17.253Z,12.57
2022-12-09T22:05:19.553Z,12.77
2022-12-09T22:09:21.773Z,13.04
2022-12-09T22:13:28.154Z,12.96
2022-12-09T22:17:32.131Z,13.08
2022-12-09T22:21:35.752Z,13.18
2022-12-09T22:25:39.905Z,13.20
2022-12-09T22:29:42.050Z,13.18
2022-12-09T22:33:45.141Z,13.05
2022-12-09T22:37:47.393Z,12.97
2022-12-09T22:41:49.781Z,12.97
2022-12-09T22:45:53.113Z,12.92
2022-12-09T22:49:55.630Z,12.94
2022-12-09T22:53:58.681Z,12.95
2022-12-09T22:58:00.941Z,12.85
2022-12-09T23:02:03.058Z,12.80
2022-12-09T23:06:05.338Z,12.69
2022-12-09T23:10:08.116Z,12.62
2022-12-09T23:14:10.750Z,12.53
2022-12-09T23:18:12.820Z,12.51
2022-12-09T23:22:14.963Z,12.59
2022-12-09T23:26:20.013Z,12.71
2022-12-09T23:30:22.129Z,12.80
2022-12-09T23:34:24.313Z,12.84
2022-12-09T23:38:26.473Z,12.93
2022-12-09T23:42:28.658Z,12.96
2022-12-09T23:46:30.799Z,12.95
2022-12-09T23:50:32.991Z,12.93
2022-12-09T23:54:35.169Z,13.00
2022-12-09T23:58:37.273Z,12.97
